createdAt,value
2023-04-15T00:07:00.591Z,11.23
2023-04-15T00:14:20.105Z,11.73
2023-04-15T00:21:38.202Z,11.10
2023-04-15T00:28:56.323Z,10.77
2023-04-15T00:36:16.846Z,10.02
2023-04-15T00:43:34.964Z,9.65
2023-04-15T00:50:53.059Z,11.38
2023-04-15T00:58:13.780Z,10.77
2023-04-15T01:05:33.795Z,10.35
2023-04-15T01:12:52.620Z,11.32
2023-04-15T01:20:12.817Z,11.60
2023-04-15T01:27:32.561Z,11.25
2023-04-15T01:34:51.040Z,10.30
2023-04-15T01:42:09.415Z,10.05
2023-04-15T01:49:29.253Z,10.18
2023-04-15T01:56:47.676Z,10.70
2023-04-15T02:04:06.003Z,11.00
2023-04-15T02:11:25.725Z,10.52
2023-04-15T02:18:45.242Z,10.95
2023-04-15T02:26:03.520Z,10.20
2023-04-15T02:33:25.274Z,10.35
2023-04-15T02:40:44.036Z,11.00
2023-04-15T02:48:06.302Z,11.10
2023-04-15T02:55:26.416Z,11.15
2023-04-15T03:03:25.521Z,11.50
2023-04-15T03:10:45.963Z,11.85
2023-04-15T03:18:04.674Z,11.98
2023-04-15T03:25:23.061Z,10.98
2023-04-15T03:32:43.032Z,10.63
2023-04-15T03:40:01.609Z,9.48
2023-04-15T03:47:19.927Z,8.50
2023-04-15T03:54:39.532Z,7.88
2023-04-15T04:01:57.818Z,7.22
2023-04-15T04:09:16.016Z,5.38
2023-04-15T04:16:40.968Z,6.13
2023-04-15T04:23:59.250Z,5.35
2023-04-15T04:31:17.501Z,4.20
2023-04-15T04:38:37.093Z,3.75
2023-04-15T04:45:55.362Z,2.90
2023-04-15T04:53:13.606Z,3.00
2023-04-15T05:00:33.192Z,2.58
2023-04-15T05:07:51.544Z,1.95
2023-04-15T05:15:10.961Z,1.92
2023-04-15T05:22:30.808Z,1.98
2023-04-15T05:29:49.065Z,2.25
2023-04-15T05:37:07.291Z,1.88
2023-04-15T05:44:27.042Z,1.45
2023-04-15T05:51:45.890Z,1.80
2023-04-15T05:59:04.345Z,2.00
2023-04-15T06:06:23.851Z,1.95
2023-04-15T06:13:42.147Z,1.83
2023-04-15T06:21:00.566Z,2.20
2023-04-15T06:28:20.592Z,1.77
2023-04-15T06:35:39.415Z,2.33
2023-04-15T06:42:57.602Z,1.95
2023-04-15T06:50:17.862Z,2.03
2023-04-15T06:57:36.326Z,2.50
2023-04-15T07:04:54.548Z,2.45
2023-04-15T07:12:18.386Z,2.28
2023-04-15T07:19:36.710Z,1.88
2023-04-15T07:26:57.200Z,1.77
2023-04-15T07:34:18.375Z,1.88
2023-04-15T07:41:36.820Z,1.70
2023-04-15T07:48:55.194Z,1.80
2023-04-15T07:56:14.908Z,1.58
2023-04-15T08:03:34.236Z,0.90
2023-04-15T08:10:52.991Z,0.90
2023-04-15T08:18:12.546Z,0.80
2023-04-15T08:25:30.746Z,1.10
2023-04-15T08:32:49.233Z,1.05
2023-04-15T08:40:10.925Z,1.23
2023-04-15T08:47:31.682Z,1.10
2023-04-15T08:54:51.390Z,1.10
2023-04-15T09:02:14.021Z,0.80
2023-04-15T09:09:37.578Z,1.20
2023-04-15T09:16:59.848Z,0.70
2023-04-15T09:24:19.888Z,0.50
2023-04-15T09:31:38.456Z,0.60
2023-04-15T09:38:57.519Z,0.60
2023-04-15T09:46:17.030Z,0.45
2023-04-15T09:53:36.752Z,0.40
2023-04-15T10:00:56.519Z,0.55
2023-04-15T10:08:17.212Z,0.60
2023-04-15T10:15:35.907Z,0.68
2023-04-15T10:22:54.614Z,0.75
2023-04-15T10:30:14.736Z,0.60
2023-04-15T10:37:37.316Z,0.57
2023-04-15T10:44:58.427Z,0.63
2023-04-15T10:52:19.246Z,0.80
2023-04-15T10:59:38.792Z,0.52
2023-04-15T11:07:07.062Z,0.40
2023-04-15T11:14:26.982Z,0.80
2023-04-15T11:21:45.134Z,0.50
2023-04-15T11:29:03.704Z,0.88
2023-04-15T11:36:26.687Z,0.55
2023-04-15T11:43:44.920Z,0.40
2023-04-15T11:51:03.871Z,0.68
2023-04-15T11:58:24.694Z,0.55
2023-04-15T12:06:08.771Z,0.47
2023-04-15T12:13:31.086Z,0.50
2023-04-15T12:20:50.219Z,0.52
2023-04-15T12:28:14.588Z,0.70
2023-04-15T12:35:34.199Z,0.60
2023-04-15T12:42:52.358Z,0.63
2023-04-15T12:50:10.998Z,0.70
2023-04-15T12:57:30.714Z,0.60
2023-04-15T13:04:49.630Z,0.70
2023-04-15T13:12:08.925Z,0.43
2023-04-15T13:19:28.838Z,0.68
2023-04-15T13:26:48.528Z,0.73
2023-04-15T13:34:08.332Z,0.80
2023-04-15T13:41:28.175Z,0.85
2023-04-15T13:48:46.645Z,0.90
2023-04-15T13:56:05.939Z,0.80
2023-04-15T14:03:25.950Z,0.80
2023-04-15T14:10:48.613Z,1.30
2023-04-15T14:18:07.094Z,0.80
2023-04-15T14:25:33.777Z,1.10
2023-04-15T14:32:52.772Z,1.00
2023-04-15T14:40:12.585Z,1.08
2023-04-15T14:47:32.352Z,1.70
2023-04-15T14:54:50.629Z,1.58
2023-04-15T15:02:10.573Z,2.88
2023-04-15T15:09:32.000Z,1.65
2023-04-15T15:16:51.747Z,2.13
2023-04-15T15:24:13.227Z,1.65
2023-04-15T15:31:33.314Z,2.80
2023-04-15T15:38:52.287Z,1.92
2023-04-15T15:46:10.843Z,1.20
2023-04-15T15:53:30.623Z,1.58
2023-04-15T16:00:49.220Z,1.73
2023-04-15T16:08:08.030Z,1.35
2023-04-15T16:15:28.016Z,1.80
2023-04-15T16:22:46.238Z,1.90
2023-04-15T16:30:05.092Z,1.67
2023-04-15T16:37:24.844Z,2.17
2023-04-15T16:44:43.062Z,3.75
2023-04-15T16:52:01.222Z,3.58
2023-04-15T16:59:20.969Z,5.50
2023-04-15T17:06:39.540Z,4.50
2023-04-15T17:13:57.918Z,3.78
2023-04-15T17:21:17.676Z,3.55
2023-04-15T17:28:36.293Z,3.00
2023-04-15T17:35:54.508Z,3.55
2023-04-15T17:43:14.501Z,4.22
2023-04-15T17:50:33.011Z,5.80
2023-04-15T17:57:51.452Z,6.55
2023-04-15T18:05:11.990Z,7.75
2023-04-15T18:12:30.618Z,7.70
2023-04-15T18:19:49.331Z,8.65
2023-04-15T18:27:09.665Z,8.60
2023-04-15T18:34:28.444Z,9.55
2023-04-15T18:41:52.030Z,8.60
2023-04-15T18:49:15.376Z,9.40
2023-04-15T18:56:36.946Z,9.73
2023-04-15T19:03:55.461Z,12.35
2023-04-15T19:11:16.012Z,10.80
2023-04-15T19:18:34.831Z,10.80
2023-04-15T19:25:54.086Z,11.07
2023-04-15T19:33:14.575Z,11.35
2023-04-15T19:40:33.889Z,11.55
2023-04-15T19:47:56.764Z,12.90
2023-04-15T19:55:16.844Z,12.53
2023-04-15T20:02:35.472Z,12.23
2023-04-15T20:09:54.188Z,14.90
2023-04-15T20:17:14.350Z,13.98
2023-04-15T20:24:32.781Z,12.70
2023-04-15T20:31:51.212Z,11.88
2023-04-15T20:39:11.397Z,13.60
2023-04-15T20:46:30.025Z,10.88
2023-04-15T20:53:49.293Z,11.00
2023-04-15T21:01:09.289Z,11.20
2023-04-15T21:08:31.850Z,12.18
2023-04-15T21:16:39.648Z,11.13
2023-04-15T21:24:12.797Z,9.90
2023-04-15T22:05:25.405Z,14.52
2023-04-15T22:13:09.735Z,14.73
2023-04-15T22:20:38.790Z,14.50
2023-04-15T22:27:57.186Z,13.95
2023-04-15T22:35:16.026Z,14.85
2023-04-15T22:42:35.747Z,16.80
2023-04-15T22:49:54.238Z,17.90
2023-04-15T22:57:12.533Z,20.40
2023-04-15T23:04:32.528Z,18.38
2023-04-15T23:11:52.385Z,23.15
2023-04-15T23:19:11.095Z,18.02
2023-04-15T23:26:31.282Z,17.40
2023-04-15T23:33:49.636Z,17.40
2023-04-15T23:41:08.996Z,18.08
2023-04-15T23:48:30.226Z,18.77
2023-04-15T23:55:49.282Z,19.40
